sensor_id;sensor_type;location;lat;lon;timestamp;P1;durP1;ratioP1;P2;durP2;ratioP2
23745;SDS011;12053;48.878;9.632;2023-04-15T00:01:01;5.63;;;3.30;;
23745;SDS011;12053;48.878;9.632;2023-04-15T00:03:28;5.10;;;3.63;;
23745;SDS011;12053;48.878;9.632;2023-04-15T00:05:59;6.63;;;3.65;;
23745;SDS011;12053;48.878;9.632;2023-04-15T00:08:26;5.20;;;3.55;;
23745;SDS011;12053;48.878;9.632;2023-04-15T00:10:55;6.78;;;3.75;;
23745;SDS011;12053;48.878;9.632;2023-04-15T00:13:24;6.43;;;3.85;;
23745;SDS011;12053;48.878;9.632;2023-04-15T00:15:51;6.38;;;3.97;;
23745;SDS011;12053;48.878;9.632;2023-04-15T00:18:18;6.10;;;3.03;;
23745;SDS011;12053;48.878;9.632;2023-04-15T00:20:46;6.80;;;3.65;;
23745;SDS011;12053;48.878;9.632;2023-04-15T00:23:13;5.13;;;3.33;;
23745;SDS011;12053;48.878;9.632;2023-04-15T00:25:40;5.57;;;3.75;;
23745;SDS011;12053;48.878;9.632;2023-04-15T00:28:07;8.48;;;4.25;;
23745;SDS011;12053;48.878;9.632;2023-04-15T00:30:35;8.25;;;4.28;;
23745;SDS011;12053;48.878;9.632;2023-04-15T00:33:02;8.07;;;3.72;;
23745;SDS011;12053;48.878;9.632;2023-04-15T00:35:29;6.85;;;3.75;;
23745;SDS011;12053;48.878;9.632;2023-04-15T00:37:59;6.00;;;3.35;;
23745;SDS011;12053;48.878;9.632;2023-04-15T00:40:26;5.45;;;3.65;;
23745;SDS011;12053;48.878;9.632;2023-04-15T00:42:54;7.65;;;3.50;;
23745;SDS011;12053;48.878;9.632;2023-04-15T00:45:21;4.07;;;3.00;;
23745;SDS011;12053;48.878;9.632;2023-04-15T00:47:49;8.23;;;3.70;;
23745;SDS011;12053;48.878;9.632;2023-04-15T00:50:17;7.38;;;3.58;;
23745;SDS011;12053;48.878;9.632;2023-04-15T00:52:44;6.03;;;4.00;;
23745;SDS011;12053;48.878;9.632;2023-04-15T00:55:11;6.80;;;3.72;;
23745;SDS011;12053;48.878;9.632;2023-04-15T00:57:39;7.85;;;4.05;;
23745;SDS011;12053;48.878;9.632;2023-04-15T01:00:06;9.23;;;4.35;;
23745;SDS011;12053;48.878;9.632;2023-04-15T01:02:35;7.63;;;4.47;;
23745;SDS011;12053;48.878;9.632;2023-04-15T01:05:02;5.57;;;3.83;;
23745;SDS011;12053;48.878;9.632;2023-04-15T01:07:30;9.48;;;5.07;;
23745;SDS011;12053;48.878;9.632;2023-04-15T01:09:57;8.15;;;4.38;;
23745;SDS011;12053;48.878;9.632;2023-04-15T01:12:25;6.47;;;3.80;;
23745;SDS011;12053;48.878;9.632;2023-04-15T01:14:53;7.35;;;4.05;;
23745;SDS011;12053;48.878;9.632;2023-04-15T01:17:22;6.28;;;3.67;;
23745;SDS011;12053;48.878;9.632;2023-04-15T01:19:50;6.18;;;3.60;;
23745;SDS011;12053;48.878;9.632;2023-04-15T01:22:17;4.15;;;3.63;;
23745;SDS011;12053;48.878;9.632;2023-04-15T01:29:55;6.57;;;3.50;;
23745;SDS011;12053;48.878;9.632;2023-04-15T01:32:22;5.22;;;3.60;;
23745;SDS011;12053;48.878;9.632;2023-04-15T01:34:49;8.23;;;3.95;;
23745;SDS011;12053;48.878;9.632;2023-04-15T01:37:17;5.80;;;3.63;;
23745;SDS011;12053;48.878;9.632;2023-04-15T01:39:44;4.63;;;3.50;;
23745;SDS011;12053;48.878;9.632;2023-04-15T01:42:11;6.10;;;3.35;;
23745;SDS011;12053;48.878;9.632;2023-04-15T01:44:38;13.65;;;4.07;;
23745;SDS011;12053;48.878;9.632;2023-04-15T01:47:05;8.30;;;4.15;;
23745;SDS011;12053;48.878;9.632;2023-04-15T01:49:33;8.25;;;4.47;;
23745;SDS011;12053;48.878;9.632;2023-04-15T01:52:01;6.57;;;3.88;;
23745;SDS011;12053;48.878;9.632;2023-04-15T01:54:28;4.43;;;3.30;;
23745;SDS011;12053;48.878;9.632;2023-04-15T01:56:55;6.43;;;3.65;;
23745;SDS011;12053;48.878;9.632;2023-04-15T01:59:23;5.28;;;3.55;;
23745;SDS011;12053;48.878;9.632;2023-04-15T02:01:50;8.38;;;3.35;;
23745;SDS011;12053;48.878;9.632;2023-04-15T02:04:17;6.47;;;3.95;;
23745;SDS011;12053;48.878;9.632;2023-04-15T02:06:45;4.88;;;3.50;;
23745;SDS011;12053;48.878;9.632;2023-04-15T02:09:12;4.38;;;3.22;;
23745;SDS011;12053;48.878;9.632;2023-04-15T02:11:39;3.55;;;3.10;;
23745;SDS011;12053;48.878;9.632;2023-04-15T02:14:06;6.95;;;3.42;;
23745;SDS011;12053;48.878;9.632;2023-04-15T02:16:33;4.47;;;3.60;;
23745;SDS011;12053;48.878;9.632;2023-04-15T02:19:00;5.22;;;3.65;;
23745;SDS011;12053;48.878;9.632;2023-04-15T02:21:29;6.55;;;3.38;;
23745;SDS011;12053;48.878;9.632;2023-04-15T02:23:56;5.30;;;3.63;;
23745;SDS011;12053;48.878;9.632;2023-04-15T02:26:23;5.82;;;3.95;;
23745;SDS011;12053;48.878;9.632;2023-04-15T02:28:50;5.25;;;3.58;;
23745;SDS011;12053;48.878;9.632;2023-04-15T02:31:17;5.47;;;3.30;;
23745;SDS011;12053;48.878;9.632;2023-04-15T02:33:46;5.38;;;4.15;;
23745;SDS011;12053;48.878;9.632;2023-04-15T02:36:13;7.68;;;4.47;;
23745;SDS011;12053;48.878;9.632;2023-04-15T02:38:40;6.95;;;3.85;;
23745;SDS011;12053;48.878;9.632;2023-04-15T02:41:08;6.25;;;4.18;;
23745;SDS011;12053;48.878;9.632;2023-04-15T02:43:36;4.90;;;3.88;;
23745;SDS011;12053;48.878;9.632;2023-04-15T02:46:05;7.95;;;4.50;;
23745;SDS011;12053;48.878;9.632;2023-04-15T02:48:32;9.35;;;4.15;;
23745;SDS011;12053;48.878;9.632;2023-04-15T02:51:12;5.85;;;4.13;;
23745;SDS011;12053;48.878;9.632;2023-04-15T02:53:39;6.28;;;4.10;;
23745;SDS011;12053;48.878;9.632;2023-04-15T02:56:06;6.80;;;4.55;;
23745;SDS011;12053;48.878;9.632;2023-04-15T02:58:34;6.70;;;4.43;;
23745;SDS011;12053;48.878;9.632;2023-04-15T03:01:01;5.90;;;4.20;;
23745;SDS011;12053;48.878;9.632;2023-04-15T03:03:29;8.93;;;4.80;;
23745;SDS011;12053;48.878;9.632;2023-04-15T03:05:56;6.68;;;4.68;;
23745;SDS011;12053;48.878;9.632;2023-04-15T03:08:23;10.15;;;5.53;;
23745;SDS011;12053;48.878;9.632;2023-04-15T03:10:51;7.03;;;5.50;;
23745;SDS011;12053;48.878;9.632;2023-04-15T03:13:19;9.18;;;5.57;;
23745;SDS011;12053;48.878;9.632;2023-04-15T03:15:46;19.75;;;9.13;;
23745;SDS011;12053;48.878;9.632;2023-04-15T03:18:14;54.78;;;18.92;;
23745;SDS011;12053;48.878;9.632;2023-04-15T03:20:41;16.13;;;7.40;;
23745;SDS011;12053;48.878;9.632;2023-04-15T03:23:08;15.48;;;8.32;;
23745;SDS011;12053;48.878;9.632;2023-04-15T03:25:36;25.55;;;12.27;;
23745;SDS011;12053;48.878;9.632;2023-04-15T03:28:03;13.60;;;7.63;;
23745;SDS011;12053;48.878;9.632;2023-04-15T03:30:30;10.40;;;6.13;;
23745;SDS011;12053;48.878;9.632;2023-04-15T03:32:57;9.38;;;5.63;;
23745;SDS011;12053;48.878;9.632;2023-04-15T03:35:25;7.32;;;4.65;;
23745;SDS011;12053;48.878;9.632;2023-04-15T03:37:52;7.40;;;5.20;;
23745;SDS011;12053;48.878;9.632;2023-04-15T03:40:19;10.38;;;5.63;;
23745;SDS011;12053;48.878;9.632;2023-04-15T03:42:47;9.88;;;6.15;;
23745;SDS011;12053;48.878;9.632;2023-04-15T03:45:14;9.80;;;6.30;;
23745;SDS011;12053;48.878;9.632;2023-04-15T03:47:41;11.00;;;6.72;;
23745;SDS011;12053;48.878;9.632;2023-04-15T03:50:09;10.55;;;6.63;;
23745;SDS011;12053;48.878;9.632;2023-04-15T03:52:36;7.43;;;5.45;;
23745;SDS011;12053;48.878;9.632;2023-04-15T03:55:04;7.90;;;5.50;;
23745;SDS011;12053;48.878;9.632;2023-04-15T03:57:31;7.82;;;6.32;;
23745;SDS011;12053;48.878;9.632;2023-04-15T04:00:06;8.30;;;5.82;;
23745;SDS011;12053;48.878;9.632;2023-04-15T04:02:37;7.38;;;5.15;;
23745;SDS011;12053;48.878;9.632;2023-04-15T04:05:04;7.38;;;4.95;;
23745;SDS011;12053;48.878;9.632;2023-04-15T04:07:32;9.13;;;5.25;;
23745;SDS011;12053;48.878;9.632;2023-04-15T04:09:59;8.27;;;6.05;;
23745;SDS011;12053;48.878;9.632;2023-04-15T04:12:26;7.43;;;5.93;;
23745;SDS011;12053;48.878;9.632;2023-04-15T04:14:53;8.70;;;6.03;;
23745;SDS011;12053;48.878;9.632;2023-04-15T04:17:21;9.13;;;5.80;;
23745;SDS011;12053;48.878;9.632;2023-04-15T04:19:48;7.55;;;5.32;;
23745;SDS011;12053;48.878;9.632;2023-04-15T04:22:16;8.63;;;5.38;;
23745;SDS011;12053;48.878;9.632;2023-04-15T04:24:43;10.82;;;5.70;;
23745;SDS011;12053;48.878;9.632;2023-04-15T04:27:10;9.50;;;6.50;;
23745;SDS011;12053;48.878;9.632;2023-04-15T04:29:37;9.07;;;6.28;;
23745;SDS011;12053;48.878;9.632;2023-04-15T04:32:04;8.07;;;5.90;;
23745;SDS011;12053;48.878;9.632;2023-04-15T04:34:32;9.75;;;6.20;;
23745;SDS011;12053;48.878;9.632;2023-04-15T04:36:59;9.02;;;6.22;;
23745;SDS011;12053;48.878;9.632;2023-04-15T04:39:26;11.93;;;7.85;;
23745;SDS011;12053;48.878;9.632;2023-04-15T04:41:53;11.48;;;7.35;;
23745;SDS011;12053;48.878;9.632;2023-04-15T04:44:21;9.57;;;6.72;;
23745;SDS011;12053;48.878;9.632;2023-04-15T04:46:48;11.95;;;5.88;;
23745;SDS011;12053;48.878;9.632;2023-04-15T04:49:15;9.40;;;6.80;;
23745;SDS011;12053;48.878;9.632;2023-04-15T04:51:42;10.57;;;6.40;;
23745;SDS011;12053;48.878;9.632;2023-04-15T04:54:10;11.52;;;6.28;;
23745;SDS011;12053;48.878;9.632;2023-04-15T04:56:37;10.52;;;6.10;;
23745;SDS011;12053;48.878;9.632;2023-04-15T04:59:04;9.80;;;6.20;;
23745;SDS011;12053;48.878;9.632;2023-04-15T05:01:32;9.80;;;6.30;;
23745;SDS011;12053;48.878;9.632;2023-04-15T05:04:00;10.82;;;6.85;;
23745;SDS011;12053;48.878;9.632;2023-04-15T05:06:27;9.88;;;6.85;;
23745;SDS011;12053;48.878;9.632;2023-04-15T05:08:55;8.73;;;5.88;;
23745;SDS011;12053;48.878;9.632;2023-04-15T05:11:23;9.63;;;6.10;;
23745;SDS011;12053;48.878;9.632;2023-04-15T05:13:50;9.30;;;5.82;;
23745;SDS011;12053;48.878;9.632;2023-04-15T05:16:17;8.20;;;5.85;;
23745;SDS011;12053;48.878;9.632;2023-04-15T05:18:45;9.30;;;5.88;;
23745;SDS011;12053;48.878;9.632;2023-04-15T05:21:12;7.90;;;5.80;;
23745;SDS011;12053;48.878;9.632;2023-04-15T05:23:40;7.90;;;5.28;;
23745;SDS011;12053;48.878;9.632;2023-04-15T05:26:07;7.82;;;4.50;;
23745;SDS011;12053;48.878;9.632;2023-04-15T05:28:34;8.70;;;5.10;;
23745;SDS011;12053;48.878;9.632;2023-04-15T05:31:02;9.65;;;5.03;;
23745;SDS011;12053;48.878;9.632;2023-04-15T05:33:29;9.35;;;4.40;;
23745;SDS011;12053;48.878;9.632;2023-04-15T05:35:56;9.32;;;4.80;;
23745;SDS011;12053;48.878;9.632;2023-04-15T05:38:23;9.60;;;5.22;;
23745;SDS011;12053;48.878;9.632;2023-04-15T05:40:51;12.35;;;4.85;;
23745;SDS011;12053;48.878;9.632;2023-04-15T05:43:18;8.68;;;5.65;;
23745;SDS011;12053;48.878;9.632;2023-04-15T05:45:45;8.57;;;4.80;;
23745;SDS011;12053;48.878;9.632;2023-04-15T05:48:13;7.32;;;5.20;;
23745;SDS011;12053;48.878;9.632;2023-04-15T05:50:40;7.07;;;4.88;;
23745;SDS011;12053;48.878;9.632;2023-04-15T05:53:08;10.85;;;4.80;;
23745;SDS011;12053;48.878;9.632;2023-04-15T05:55:35;6.80;;;3.80;;
23745;SDS011;12053;48.878;9.632;2023-04-15T05:58:02;6.43;;;4.13;;
23745;SDS011;12053;48.878;9.632;2023-04-15T06:00:29;8.70;;;4.47;;
23745;SDS011;12053;48.878;9.632;2023-04-15T06:02:57;7.20;;;4.22;;
23745;SDS011;12053;48.878;9.632;2023-04-15T06:05:25;5.30;;;3.88;;
23745;SDS011;12053;48.878;9.632;2023-04-15T06:07:52;6.57;;;4.28;;
23745;SDS011;12053;48.878;9.632;2023-04-15T06:10:20;5.35;;;3.85;;
23745;SDS011;12053;48.878;9.632;2023-04-15T06:12:47;18.77;;;10.20;;
23745;SDS011;12053;48.878;9.632;2023-04-15T06:15:14;12.30;;;6.70;;
23745;SDS011;12053;48.878;9.632;2023-04-15T06:17:42;10.02;;;6.40;;
23745;SDS011;12053;48.878;9.632;2023-04-15T06:20:09;9.20;;;4.93;;
23745;SDS011;12053;48.878;9.632;2023-04-15T06:22:37;16.00;;;9.02;;
23745;SDS011;12053;48.878;9.632;2023-04-15T06:25:04;11.18;;;5.35;;
23745;SDS011;12053;48.878;9.632;2023-04-15T06:27:33;14.80;;;7.97;;
23745;SDS011;12053;48.878;9.632;2023-04-15T06:30:00;6.05;;;2.78;;
23745;SDS011;12053;48.878;9.632;2023-04-15T06:32:27;7.90;;;2.95;;
23745;SDS011;12053;48.878;9.632;2023-04-15T06:34:54;6.63;;;2.45;;
23745;SDS011;12053;48.878;9.632;2023-04-15T06:37:22;8.82;;;2.85;;
23745;SDS011;12053;48.878;9.632;2023-04-15T06:39:49;6.30;;;2.63;;
23745;SDS011;12053;48.878;9.632;2023-04-15T06:42:16;5.55;;;2.63;;
23745;SDS011;12053;48.878;9.632;2023-04-15T06:44:44;6.18;;;2.22;;
23745;SDS011;12053;48.878;9.632;2023-04-15T06:47:11;6.18;;;2.40;;
23745;SDS011;12053;48.878;9.632;2023-04-15T06:49:39;8.77;;;2.80;;
23745;SDS011;12053;48.878;9.632;2023-04-15T06:52:09;6.55;;;2.60;;
23745;SDS011;12053;48.878;9.632;2023-04-15T06:54:36;5.70;;;2.50;;
23745;SDS011;12053;48.878;9.632;2023-04-15T06:57:03;8.13;;;2.63;;
23745;SDS011;12053;48.878;9.632;2023-04-15T06:59:30;6.05;;;2.30;;
23745;SDS011;12053;48.878;9.632;2023-04-15T07:01:58;5.50;;;2.20;;
23745;SDS011;12053;48.878;9.632;2023-04-15T07:04:25;5.45;;;2.10;;
23745;SDS011;12053;48.878;9.632;2023-04-15T07:06:53;5.28;;;2.20;;
23745;SDS011;12053;48.878;9.632;2023-04-15T07:09:23;4.13;;;2.35;;
23745;SDS011;12053;48.878;9.632;2023-04-15T07:11:50;4.65;;;2.25;;
23745;SDS011;12053;48.878;9.632;2023-04-15T07:14:18;4.68;;;2.20;;
23745;SDS011;12053;48.878;9.632;2023-04-15T07:16:45;7.13;;;3.95;;
23745;SDS011;12053;48.878;9.632;2023-04-15T07:19:12;7.50;;;2.75;;
23745;SDS011;12053;48.878;9.632;2023-04-15T07:21:39;4.60;;;2.13;;
23745;SDS011;12053;48.878;9.632;2023-04-15T07:24:07;6.28;;;2.08;;
23745;SDS011;12053;48.878;9.632;2023-04-15T07:26:35;3.53;;;2.10;;
23745;SDS011;12053;48.878;9.632;2023-04-15T07:29:02;5.50;;;2.25;;
23745;SDS011;12053;48.878;9.632;2023-04-15T07:31:29;5.18;;;2.47;;
23745;SDS011;12053;48.878;9.632;2023-04-15T07:33:57;9.75;;;2.40;;
23745;SDS011;12053;48.878;9.632;2023-04-15T07:36:24;6.72;;;1.85;;
23745;SDS011;12053;48.878;9.632;2023-04-15T07:38:52;6.63;;;2.72;;
23745;SDS011;12053;48.878;9.632;2023-04-15T07:41:20;5.78;;;3.20;;
23745;SDS011;12053;48.878;9.632;2023-04-15T07:43:47;6.88;;;3.20;;
23745;SDS011;12053;48.878;9.632;2023-04-15T07:46:14;7.75;;;2.50;;
23745;SDS011;12053;48.878;9.632;2023-04-15T07:48:42;3.83;;;1.77;;
23745;SDS011;12053;48.878;9.632;2023-04-15T07:51:09;3.28;;;1.75;;
23745;SDS011;12053;48.878;9.632;2023-04-15T07:53:36;5.55;;;2.92;;
23745;SDS011;12053;48.878;9.632;2023-04-15T07:56:03;3.45;;;1.73;;
23745;SDS011;12053;48.878;9.632;2023-04-15T07:58:31;5.25;;;3.03;;
23745;SDS011;12053;48.878;9.632;2023-04-15T08:00:58;4.40;;;1.80;;
23745;SDS011;12053;48.878;9.632;2023-04-15T08:03:25;6.20;;;2.22;;
23745;SDS011;12053;48.878;9.632;2023-04-15T08:05:52;6.38;;;1.67;;
23745;SDS011;12053;48.878;9.632;2023-04-15T08:08:20;3.90;;;2.03;;
23745;SDS011;12053;48.878;9.632;2023-04-15T08:10:47;6.38;;;2.08;;
23745;SDS011;12053;48.878;9.632;2023-04-15T08:13:17;4.80;;;1.98;;
23745;SDS011;12053;48.878;9.632;2023-04-15T08:15:44;6.15;;;2.08;;
23745;SDS011;12053;48.878;9.632;2023-04-15T08:18:12;6.68;;;2.22;;
23745;SDS011;12053;48.878;9.632;2023-04-15T08:20:39;6.75;;;3.03;;
23745;SDS011;12053;48.878;9.632;2023-04-15T08:23:06;5.03;;;2.40;;
23745;SDS011;12053;48.878;9.632;2023-04-15T08:25:34;3.10;;;1.80;;
23745;SDS011;12053;48.878;9.632;2023-04-15T08:28:03;4.38;;;2.42;;
23745;SDS011;12053;48.878;9.632;2023-04-15T08:30:32;5.20;;;2.97;;
23745;SDS011;12053;48.878;9.632;2023-04-15T08:32:59;5.90;;;2.00;;
23745;SDS011;12053;48.878;9.632;2023-04-15T08:35:27;5.43;;;2.03;;
23745;SDS011;12053;48.878;9.632;2023-04-15T08:37:54;4.45;;;2.40;;
23745;SDS011;12053;48.878;9.632;2023-04-15T08:40:21;4.40;;;2.20;;
23745;SDS011;12053;48.878;9.632;2023-04-15T08:42:52;3.03;;;1.77;;
23745;SDS011;12053;48.878;9.632;2023-04-15T08:45:20;4.90;;;2.13;;
23745;SDS011;12053;48.878;9.632;2023-04-15T08:47:48;3.38;;;2.28;;
23745;SDS011;12053;48.878;9.632;2023-04-15T08:50:18;4.95;;;2.38;;
23745;SDS011;12053;48.878;9.632;2023-04-15T08:52:47;5.90;;;3.67;;
23745;SDS011;12053;48.878;9.632;2023-04-15T08:55:14;2.65;;;2.10;;
23745;SDS011;12053;48.878;9.632;2023-04-15T08:57:41;3.90;;;2.03;;
23745;SDS011;12053;48.878;9.632;2023-04-15T09:00:09;4.47;;;1.90;;
23745;SDS011;12053;48.878;9.632;2023-04-15T09:02:37;4.60;;;1.90;;
23745;SDS011;12053;48.878;9.632;2023-04-15T09:05:05;2.53;;;1.70;;
23745;SDS011;12053;48.878;9.632;2023-04-15T09:07:33;5.32;;;1.90;;
23745;SDS011;12053;48.878;9.632;2023-04-15T09:10:02;5.75;;;2.40;;
23745;SDS011;12053;48.878;9.632;2023-04-15T09:12:29;3.92;;;2.00;;
23745;SDS011;12053;48.878;9.632;2023-04-15T09:14:57;2.28;;;1.95;;
23745;SDS011;12053;48.878;9.632;2023-04-15T09:17:24;4.75;;;2.25;;
23745;SDS011;12053;48.878;9.632;2023-04-15T09:20:09;3.83;;;1.85;;
23745;SDS011;12053;48.878;9.632;2023-04-15T09:22:36;3.88;;;2.00;;
23745;SDS011;12053;48.878;9.632;2023-04-15T09:25:25;5.57;;;2.50;;
23745;SDS011;12053;48.878;9.632;2023-04-15T09:27:55;5.75;;;2.13;;
23745;SDS011;12053;48.878;9.632;2023-04-15T09:30:23;4.88;;;2.25;;
23745;SDS011;12053;48.878;9.632;2023-04-15T09:32:51;3.67;;;2.00;;
23745;SDS011;12053;48.878;9.632;2023-04-15T09:35:19;4.65;;;2.20;;
23745;SDS011;12053;48.878;9.632;2023-04-15T09:37:51;6.22;;;2.30;;
23745;SDS011;12053;48.878;9.632;2023-04-15T09:43:01;6.95;;;2.35;;
23745;SDS011;12053;48.878;9.632;2023-04-15T09:45:28;4.57;;;1.92;;
23745;SDS011;12053;48.878;9.632;2023-04-15T09:47:56;5.15;;;2.40;;
23745;SDS011;12053;48.878;9.632;2023-04-15T09:50:28;6.90;;;2.10;;
23745;SDS011;12053;48.878;9.632;2023-04-15T09:52:55;4.88;;;2.28;;
23745;SDS011;12053;48.878;9.632;2023-04-15T09:55:23;2.95;;;2.20;;
23745;SDS011;12053;48.878;9.632;2023-04-15T09:57:50;5.60;;;2.25;;
23745;SDS011;12053;48.878;9.632;2023-04-15T10:00:17;8.00;;;2.47;;
23745;SDS011;12053;48.878;9.632;2023-04-15T10:02:44;4.70;;;2.35;;
23745;SDS011;12053;48.878;9.632;2023-04-15T10:05:14;5.13;;;2.85;;
23745;SDS011;12053;48.878;9.632;2023-04-15T10:07:43;9.60;;;4.43;;
23745;SDS011;12053;48.878;9.632;2023-04-15T10:10:11;7.30;;;4.40;;
23745;SDS011;12053;48.878;9.632;2023-04-15T10:12:39;10.70;;;4.97;;
23745;SDS011;12053;48.878;9.632;2023-04-15T10:15:07;4.97;;;3.10;;
23745;SDS011;12053;48.878;9.632;2023-04-15T10:17:37;4.97;;;3.05;;
23745;SDS011;12053;48.878;9.632;2023-04-15T10:20:04;6.10;;;3.33;;
23745;SDS011;12053;48.878;9.632;2023-04-15T10:22:32;8.13;;;4.75;;
23745;SDS011;12053;48.878;9.632;2023-04-15T10:24:59;5.88;;;3.35;;
23745;SDS011;12053;48.878;9.632;2023-04-15T10:27:29;9.10;;;3.75;;
23745;SDS011;12053;48.878;9.632;2023-04-15T10:29:57;8.73;;;4.50;;
23745;SDS011;12053;48.878;9.632;2023-04-15T10:32:27;6.65;;;4.90;;
23745;SDS011;12053;48.878;9.632;2023-04-15T10:34:55;7.80;;;5.55;;
23745;SDS011;12053;48.878;9.632;2023-04-15T10:37:33;8.40;;;4.45;;
23745;SDS011;12053;48.878;9.632;2023-04-15T10:40:00;8.07;;;4.45;;
23745;SDS011;12053;48.878;9.632;2023-04-15T10:42:47;9.10;;;4.47;;
23745;SDS011;12053;48.878;9.632;2023-04-15T10:45:15;7.10;;;3.95;;
23745;SDS011;12053;48.878;9.632;2023-04-15T10:47:43;5.65;;;4.05;;
23745;SDS011;12053;48.878;9.632;2023-04-15T10:50:10;6.45;;;3.97;;
23745;SDS011;12053;48.878;9.632;2023-04-15T10:52:40;4.47;;;3.38;;
23745;SDS011;12053;48.878;9.632;2023-04-15T10:55:14;4.53;;;3.20;;
23745;SDS011;12053;48.878;9.632;2023-04-15T10:57:44;7.70;;;4.10;;
23745;SDS011;12053;48.878;9.632;2023-04-15T11:00:14;6.80;;;3.80;;
23745;SDS011;12053;48.878;9.632;2023-04-15T11:05:10;8.20;;;4.10;;
23745;SDS011;12053;48.878;9.632;2023-04-15T11:07:38;5.72;;;3.88;;
23745;SDS011;12053;48.878;9.632;2023-04-15T11:12:40;5.88;;;3.53;;
23745;SDS011;12053;48.878;9.632;2023-04-15T11:17:54;6.18;;;3.83;;
23745;SDS011;12053;48.878;9.632;2023-04-15T11:20:22;6.70;;;4.07;;
23745;SDS011;12053;48.878;9.632;2023-04-15T11:22:50;9.90;;;4.32;;
23745;SDS011;12053;48.878;9.632;2023-04-15T11:25:34;7.57;;;4.40;;
23745;SDS011;12053;48.878;9.632;2023-04-15T11:28:03;5.70;;;4.28;;
23745;SDS011;12053;48.878;9.632;2023-04-15T11:30:32;7.78;;;4.53;;
23745;SDS011;12053;48.878;9.632;2023-04-15T11:33:00;7.93;;;4.53;;
23745;SDS011;12053;48.878;9.632;2023-04-15T11:35:28;6.53;;;4.30;;
23745;SDS011;12053;48.878;9.632;2023-04-15T11:37:55;6.00;;;3.75;;
23745;SDS011;12053;48.878;9.632;2023-04-15T11:45:36;7.25;;;3.90;;
23745;SDS011;12053;48.878;9.632;2023-04-15T11:48:05;5.65;;;3.97;;
23745;SDS011;12053;48.878;9.632;2023-04-15T11:50:33;6.60;;;3.95;;
23745;SDS011;12053;48.878;9.632;2023-04-15T11:53:01;9.52;;;3.70;;
23745;SDS011;12053;48.878;9.632;2023-04-15T11:55:49;6.05;;;3.50;;
23745;SDS011;12053;48.878;9.632;2023-04-15T11:58:23;7.97;;;3.42;;
23745;SDS011;12053;48.878;9.632;2023-04-15T12:00:52;6.63;;;3.92;;
23745;SDS011;12053;48.878;9.632;2023-04-15T12:03:21;4.18;;;3.30;;
23745;SDS011;12053;48.878;9.632;2023-04-15T12:13:58;5.95;;;3.40;;
23745;SDS011;12053;48.878;9.632;2023-04-15T12:16:26;7.57;;;3.53;;
23745;SDS011;12053;48.878;9.632;2023-04-15T12:18:57;6.05;;;4.10;;
23745;SDS011;12053;48.878;9.632;2023-04-15T12:21:25;6.70;;;3.38;;
23745;SDS011;12053;48.878;9.632;2023-04-15T12:23:56;5.32;;;3.90;;
23745;SDS011;12053;48.878;9.632;2023-04-15T12:29:00;3.83;;;2.60;;
23745;SDS011;12053;48.878;9.632;2023-04-15T12:31:28;4.15;;;2.70;;
23745;SDS011;12053;48.878;9.632;2023-04-15T12:33:56;4.75;;;2.78;;
23745;SDS011;12053;48.878;9.632;2023-04-15T12:36:23;4.13;;;2.92;;
23745;SDS011;12053;48.878;9.632;2023-04-15T12:38:51;7.07;;;3.85;;
23745;SDS011;12053;48.878;9.632;2023-04-15T12:41:19;5.18;;;3.95;;
23745;SDS011;12053;48.878;9.632;2023-04-15T12:43:47;6.13;;;3.20;;
23745;SDS011;12053;48.878;9.632;2023-04-15T12:46:14;9.45;;;3.88;;
23745;SDS011;12053;48.878;9.632;2023-04-15T12:48:41;4.85;;;3.05;;
23745;SDS011;12053;48.878;9.632;2023-04-15T12:51:08;5.45;;;3.05;;
23745;SDS011;12053;48.878;9.632;2023-04-15T12:53:36;4.18;;;2.78;;
23745;SDS011;12053;48.878;9.632;2023-04-15T12:56:03;4.43;;;3.15;;
23745;SDS011;12053;48.878;9.632;2023-04-15T12:58:30;3.00;;;2.10;;
23745;SDS011;12053;48.878;9.632;2023-04-15T13:00:58;5.68;;;2.72;;
23745;SDS011;12053;48.878;9.632;2023-04-15T13:03:25;3.70;;;2.60;;
23745;SDS011;12053;48.878;9.632;2023-04-15T13:05:53;3.85;;;2.00;;
23745;SDS011;12053;48.878;9.632;2023-04-15T13:08:20;4.95;;;1.90;;
23745;SDS011;12053;48.878;9.632;2023-04-15T13:10:47;5.45;;;1.80;;
23745;SDS011;12053;48.878;9.632;2023-04-15T13:13:14;2.92;;;1.80;;
23745;SDS011;12053;48.878;9.632;2023-04-15T13:15:41;2.20;;;2.00;;
23745;SDS011;12053;48.878;9.632;2023-04-15T13:18:11;5.10;;;2.13;;
23745;SDS011;12053;48.878;9.632;2023-04-15T13:20:38;5.90;;;4.68;;
23745;SDS011;12053;48.878;9.632;2023-04-15T13:23:06;5.88;;;2.92;;
23745;SDS011;12053;48.878;9.632;2023-04-15T13:25:33;2.65;;;1.75;;
23745;SDS011;12053;48.878;9.632;2023-04-15T13:28:00;7.38;;;3.92;;
23745;SDS011;12053;48.878;9.632;2023-04-15T13:30:28;7.28;;;3.60;;
23745;SDS011;12053;48.878;9.632;2023-04-15T13:32:56;4.65;;;3.75;;
23745;SDS011;12053;48.878;9.632;2023-04-15T13:35:23;5.13;;;3.28;;
23745;SDS011;12053;48.878;9.632;2023-04-15T13:37:52;5.70;;;3.28;;
23745;SDS011;12053;48.878;9.632;2023-04-15T13:40:20;4.35;;;2.60;;
23745;SDS011;12053;48.878;9.632;2023-04-15T13:42:47;5.88;;;2.63;;
23745;SDS011;12053;48.878;9.632;2023-04-15T13:45:14;8.98;;;8.02;;
23745;SDS011;12053;48.878;9.632;2023-04-15T13:47:42;4.05;;;2.20;;
23745;SDS011;12053;48.878;9.632;2023-04-15T13:50:09;3.15;;;1.70;;
23745;SDS011;12053;48.878;9.632;2023-04-15T13:52:36;2.65;;;1.40;;
23745;SDS011;12053;48.878;9.632;2023-04-15T13:55:03;2.15;;;1.55;;
23745;SDS011;12053;48.878;9.632;2023-04-15T13:57:46;3.53;;;2.05;;
23745;SDS011;12053;48.878;9.632;2023-04-15T14:00:13;2.78;;;1.25;;
23745;SDS011;12053;48.878;9.632;2023-04-15T14:02:40;2.50;;;1.60;;
23745;SDS011;12053;48.878;9.632;2023-04-15T14:05:09;2.72;;;1.70;;
23745;SDS011;12053;48.878;9.632;2023-04-15T14:07:36;2.75;;;1.60;;
23745;SDS011;12053;48.878;9.632;2023-04-15T14:10:03;2.22;;;1.48;;
23745;SDS011;12053;48.878;9.632;2023-04-15T14:12:31;1.83;;;1.25;;
23745;SDS011;12053;48.878;9.632;2023-04-15T14:14:58;1.40;;;0.82;;
23745;SDS011;12053;48.878;9.632;2023-04-15T14:17:25;1.42;;;0.80;;
23745;SDS011;12053;48.878;9.632;2023-04-15T14:19:53;3.05;;;1.42;;
23745;SDS011;12053;48.878;9.632;2023-04-15T14:22:20;1.70;;;1.30;;
23745;SDS011;12053;48.878;9.632;2023-04-15T14:24:47;2.40;;;1.33;;
23745;SDS011;12053;48.878;9.632;2023-04-15T14:27:14;5.40;;;2.70;;
23745;SDS011;12053;48.878;9.632;2023-04-15T14:29:42;2.88;;;2.20;;
23745;SDS011;12053;48.878;9.632;2023-04-15T14:32:09;1.92;;;1.30;;
23745;SDS011;12053;48.878;9.632;2023-04-15T14:34:38;1.63;;;1.35;;
23745;SDS011;12053;48.878;9.632;2023-04-15T14:37:05;4.13;;;2.45;;
23745;SDS011;12053;48.878;9.632;2023-04-15T14:39:33;4.18;;;2.30;;
23745;SDS011;12053;48.878;9.632;2023-04-15T14:42:00;4.10;;;2.13;;
23745;SDS011;12053;48.878;9.632;2023-04-15T14:44:27;3.05;;;1.85;;
23745;SDS011;12053;48.878;9.632;2023-04-15T14:46:57;1.50;;;1.40;;
23745;SDS011;12053;48.878;9.632;2023-04-15T14:49:24;4.32;;;1.50;;
23745;SDS011;12053;48.878;9.632;2023-04-15T14:51:51;1.50;;;1.20;;
23745;SDS011;12053;48.878;9.632;2023-04-15T14:54:19;1.55;;;1.45;;
23745;SDS011;12053;48.878;9.632;2023-04-15T14:56:47;2.38;;;1.30;;
23745;SDS011;12053;48.878;9.632;2023-04-15T14:59:14;1.60;;;1.20;;
23745;SDS011;12053;48.878;9.632;2023-04-15T15:01:42;2.65;;;1.20;;
23745;SDS011;12053;48.878;9.632;2023-04-15T15:04:09;2.80;;;1.05;;
23745;SDS011;12053;48.878;9.632;2023-04-15T15:06:37;1.45;;;1.25;;
23745;SDS011;12053;48.878;9.632;2023-04-15T15:09:04;4.85;;;1.65;;
23745;SDS011;12053;48.878;9.632;2023-04-15T15:11:32;1.52;;;1.27;;
23745;SDS011;12053;48.878;9.632;2023-04-15T15:13:59;3.55;;;1.50;;
23745;SDS011;12053;48.878;9.632;2023-04-15T15:16:26;1.83;;;1.50;;
23745;SDS011;12053;48.878;9.632;2023-04-15T15:18:54;3.58;;;1.40;;
23745;SDS011;12053;48.878;9.632;2023-04-15T15:21:21;1.52;;;1.42;;